sensor_id;sensor_type;location;lat;lon;timestamp;pressure;altitude;pressure_sealevel;temperature;humidity
21863;BME280;11096;51.338;12.524;2023-05-22T00:00:28;100101.47;;;17.14;93.15
21863;BME280;11096;51.338;12.524;2023-05-22T00:02:53;100107.84;;;17.12;93.20
21863;BME280;11096;51.338;12.524;2023-05-22T00:05:19;100100.41;;;17.07;93.51
21863;BME280;11096;51.338;12.524;2023-05-22T00:07:45;100097.09;;;17.05;93.63
21863;BME280;11096;51.338;12.524;2023-05-22T00:10:11;100098.38;;;17.01;93.77
21863;BME280;11096;51.338;12.524;2023-05-22T00:12:36;100106.41;;;17.00;93.98
21863;BME280;11096;51.338;12.524;2023-05-22T00:15:02;100097.16;;;16.95;94.26
21863;BME280;11096;51.338;12.524;2023-05-22T00:17:28;100094.47;;;16.87;94.55
21863;BME280;11096;51.338;12.524;2023-05-22T00:19:55;100094.75;;;16.84;94.96
21863;BME280;11096;51.338;12.524;2023-05-22T00:22:21;100094.06;;;16.82;94.92
21863;BME280;11096;51.338;12.524;2023-05-22T00:24:46;100097.00;;;16.79;95.43
21863;BME280;11096;51.338;12.524;2023-05-22T00:27:12;100097.81;;;16.80;95.30
21863;BME280;11096;51.338;12.524;2023-05-22T00:29:37;100091.03;;;16.77;95.52
21863;BME280;11096;51.338;12.524;2023-05-22T00:32:03;100097.72;;;16.71;95.94
21863;BME280;11096;51.338;12.524;2023-05-22T00:34:29;100099.66;;;16.69;96.10
21863;BME280;11096;51.338;12.524;2023-05-22T00:36:54;100094.53;;;16.68;96.34
21863;BME280;11096;51.338;12.524;2023-05-22T00:39:20;100096.78;;;16.63;96.56
21863;BME280;11096;51.338;12.524;2023-05-22T00:41:46;100092.13;;;16.57;97.02
21863;BME280;11096;51.338;12.524;2023-05-22T00:44:11;100089.94;;;16.52;97.24
21863;BME280;11096;51.338;12.524;2023-05-22T00:46:36;100089.38;;;16.48;97.73
21863;BME280;11096;51.338;12.524;2023-05-22T00:49:03;100084.72;;;16.42;97.95
21863;BME280;11096;51.338;12.524;2023-05-22T00:51:28;100084.72;;;16.42;98.35
21863;BME280;11096;51.338;12.524;2023-05-22T00:53:54;100091.91;;;16.40;98.58
21863;BME280;11096;51.338;12.524;2023-05-22T00:56:20;100080.34;;;16.33;99.05
21863;BME280;11096;51.338;12.524;2023-05-22T00:58:46;100082.28;;;16.31;99.43
21863;BME280;11096;51.338;12.524;2023-05-22T01:01:12;100080.94;;;16.27;99.86
21863;BME280;11096;51.338;12.524;2023-05-22T01:03:40;100077.63;;;16.25;100.00
21863;BME280;11096;51.338;12.524;2023-05-22T01:06:14;100076.25;;;16.21;100.00
21863;BME280;11096;51.338;12.524;2023-05-22T01:08:41;100076.25;;;16.21;100.00
21863;BME280;11096;51.338;12.524;2023-05-22T01:11:12;100073.75;;;16.19;100.00
21863;BME280;11096;51.338;12.524;2023-05-22T01:14:11;100079.16;;;16.18;100.00
21863;BME280;11096;51.338;12.524;2023-05-22T01:16:51;100083.19;;;16.12;100.00
21863;BME280;11096;51.338;12.524;2023-05-22T01:22:57;100075.34;;;16.02;100.00
21863;BME280;11096;51.338;12.524;2023-05-22T01:28:28;100084.06;;;15.93;100.00
21863;BME280;11096;51.338;12.524;2023-05-22T01:31:01;100080.47;;;15.94;100.00
21863;BME280;11096;51.338;12.524;2023-05-22T01:33:37;100084.50;;;15.88;100.00
21863;BME280;11096;51.338;12.524;2023-05-22T01:36:06;100093.47;;;15.86;100.00
21863;BME280;11096;51.338;12.524;2023-05-22T01:38:33;100084.22;;;15.82;100.00
21863;BME280;11096;51.338;12.524;2023-05-22T01:40:59;100086.16;;;15.80;100.00
21863;BME280;11096;51.338;12.524;2023-05-22T01:43:25;100093.59;;;15.75;100.00
21863;BME280;11096;51.338;12.524;2023-05-22T01:45:51;100086.59;;;15.75;100.00
21863;BME280;11096;51.338;12.524;2023-05-22T01:48:16;100086.72;;;15.74;100.00
21863;BME280;11096;51.338;12.524;2023-05-22T01:50:42;100093.75;;;15.73;100.00
21863;BME280;11096;51.338;12.524;2023-05-22T01:53:27;100087.69;;;15.73;100.00
21863;BME280;11096;51.338;12.524;2023-05-22T01:56:09;100090.44;;;15.71;100.00
21863;BME280;11096;51.338;12.524;2023-05-22T01:58:56;100097.06;;;15.65;100.00
21863;BME280;11096;51.338;12.524;2023-05-22T02:01:26;100092.06;;;15.62;100.00
21863;BME280;11096;51.338;12.524;2023-05-22T02:03:55;100095.09;;;15.58;100.00
21863;BME280;11096;51.338;12.524;2023-05-22T02:06:24;100098.81;;;15.55;100.00
21863;BME280;11096;51.338;12.524;2023-05-22T02:08:52;100094.84;;;15.51;100.00
21863;BME280;11096;51.338;12.524;2023-05-22T02:11:19;100094.97;;;15.50;100.00
21863;BME280;11096;51.338;12.524;2023-05-22T02:13:47;100094.03;;;15.51;100.00
21863;BME280;11096;51.338;12.524;2023-05-22T02:16:12;100097.06;;;15.46;100.00
21863;BME280;11096;51.338;12.524;2023-05-22T02:18:38;100098.28;;;15.42;100.00
21863;BME280;11096;51.338;12.524;2023-05-22T02:21:06;100090.72;;;15.39;100.00
21863;BME280;11096;51.338;12.524;2023-05-22T02:23:33;100092.66;;;15.37;100.00
21863;BME280;11096;51.338;12.524;2023-05-22T02:25:58;100086.03;;;15.33;100.00
21863;BME280;11096;51.338;12.524;2023-05-22T02:28:24;100087.41;;;15.27;100.00
21863;BME280;11096;51.338;12.524;2023-05-22T02:30:49;100080.38;;;15.28;100.00
21863;BME280;11096;51.338;12.524;2023-05-22T02:33:14;100086.88;;;15.23;100.00
21863;BME280;11096;51.338;12.524;2023-05-22T02:35:43;100092.63;;;15.17;100.00
21863;BME280;11096;51.338;12.524;2023-05-22T02:38:08;100082.16;;;15.17;100.00
21863;BME280;11096;51.338;12.524;2023-05-22T02:40:33;100092.22;;;15.12;100.00
21863;BME280;11096;51.338;12.524;2023-05-22T02:42:59;100079.25;;;15.11;100.00
21863;BME280;11096;51.338;12.524;2023-05-22T02:45:24;100079.66;;;15.06;100.00
21863;BME280;11096;51.338;12.524;2023-05-22T02:47:50;100086.00;;;15.03;100.00
21863;BME280;11096;51.338;12.524;2023-05-22T02:50:15;100081.19;;;14.99;100.00
21863;BME280;11096;51.338;12.524;2023-05-22T02:52:41;100070.28;;;14.94;100.00
21863;BME280;11096;51.338;12.524;2023-05-22T02:55:07;100080.75;;;14.94;100.00
21863;BME280;11096;51.338;12.524;2023-05-22T02:57:32;100074.28;;;14.88;100.00
21863;BME280;11096;51.338;12.524;2023-05-22T02:59:58;100069.44;;;14.84;100.00
21863;BME280;11096;51.338;12.524;2023-05-22T03:02:26;100071.81;;;14.87;100.00
21863;BME280;11096;51.338;12.524;2023-05-22T03:04:56;100066.13;;;14.81;100.00
21863;BME280;11096;51.338;12.524;2023-05-22T03:07:23;100064.75;;;14.77;100.00
21863;BME280;11096;51.338;12.524;2023-05-22T03:09:53;100069.03;;;14.78;100.00
21863;BME280;11096;51.338;12.524;2023-05-22T03:12:19;100061.16;;;14.78;100.00
21863;BME280;11096;51.338;12.524;2023-05-22T03:14:45;100063.09;;;14.76;100.00
21863;BME280;11096;51.338;12.524;2023-05-22T03:17:10;100068.88;;;14.70;100.00
21863;BME280;11096;51.338;12.524;2023-05-22T03:19:36;100058.41;;;14.70;100.00
21863;BME280;11096;51.338;12.524;2023-05-22T03:22:01;100061.16;;;14.69;100.00
21863;BME280;11096;51.338;12.524;2023-05-22T03:24:26;100068.16;;;14.68;100.00
21863;BME280;11096;51.338;12.524;2023-05-22T03:26:52;100062.25;;;14.66;100.00
21863;BME280;11096;51.338;12.524;2023-05-22T03:29:17;100059.63;;;14.66;100.00
21863;BME280;11096;51.338;12.524;2023-05-22T03:31:43;100060.59;;;14.65;100.00
21863;BME280;11096;51.338;12.524;2023-05-22T03:34:08;100062.41;;;14.65;100.00
21863;BME280;11096;51.338;12.524;2023-05-22T03:36:34;100065.13;;;14.63;100.00
21863;BME280;11096;51.338;12.524;2023-05-22T03:39:00;100064.44;;;14.61;100.00
21863;BME280;11096;51.338;12.524;2023-05-22T03:41:26;100062.53;;;14.63;100.00
21863;BME280;11096;51.338;12.524;2023-05-22T03:43:51;100062.25;;;14.66;100.00
21863;BME280;11096;51.338;12.524;2023-05-22T03:46:16;100060.31;;;14.68;100.00
21863;BME280;11096;51.338;12.524;2023-05-22T03:48:42;100063.38;;;14.73;100.00
21863;BME280;11096;51.338;12.524;2023-05-22T03:51:07;100061.72;;;14.72;100.00
21863;BME280;11096;51.338;12.524;2023-05-22T03:53:33;100065.03;;;14.74;100.00
21863;BME280;11096;51.338;12.524;2023-05-22T03:55:58;100057.84;;;14.76;100.00
21863;BME280;11096;51.338;12.524;2023-05-22T03:58:24;100059.81;;;14.74;100.00
21863;BME280;11096;51.338;12.524;2023-05-22T04:00:53;100056.34;;;14.84;99.25
21863;BME280;11096;51.338;12.524;2023-05-22T04:03:19;100062.59;;;14.92;98.81
21863;BME280;11096;51.338;12.524;2023-05-22T04:05:45;100056.53;;;14.92;97.54
21863;BME280;11096;51.338;12.524;2023-05-22T04:08:11;100058.03;;;14.94;96.46
21863;BME280;11096;51.338;12.524;2023-05-22T04:10:36;100059.28;;;15.00;96.06
21863;BME280;11096;51.338;12.524;2023-05-22T04:13:03;100056.56;;;15.11;94.87
21863;BME280;11096;51.338;12.524;2023-05-22T04:15:29;100055.84;;;15.09;94.54
21863;BME280;11096;51.338;12.524;2023-05-22T04:17:58;100049.94;;;15.07;94.61
21863;BME280;11096;51.338;12.524;2023-05-22T04:20:24;100058.31;;;15.20;94.42
21863;BME280;11096;51.338;12.524;2023-05-22T04:22:49;100059.59;;;15.16;93.63
21863;BME280;11096;51.338;12.524;2023-05-22T04:25:15;100057.91;;;15.25;93.56
21863;BME280;11096;51.338;12.524;2023-05-22T04:27:41;100058.19;;;15.32;92.93
21863;BME280;11096;51.338;12.524;2023-05-22T04:30:07;100054.06;;;15.39;92.67
21863;BME280;11096;51.338;12.524;2023-05-22T04:32:33;100065.75;;;15.35;91.80
21863;BME280;11096;51.338;12.524;2023-05-22T04:35:01;100057.50;;;15.39;92.09
21863;BME280;11096;51.338;12.524;2023-05-22T04:37:26;100057.63;;;15.48;91.51
21863;BME280;11096;51.338;12.524;2023-05-22T04:39:53;100063.72;;;15.48;91.10
21863;BME280;11096;51.338;12.524;2023-05-22T04:45:36;100063.97;;;15.55;90.25
21863;BME280;11096;51.338;12.524;2023-05-22T04:48:01;100060.66;;;15.53;90.24
21863;BME280;11096;51.338;12.524;2023-05-22T04:50:27;100070.56;;;15.68;89.48
21863;BME280;11096;51.338;12.524;2023-05-22T04:52:57;100068.25;;;15.65;89.31
21863;BME280;11096;51.338;12.524;2023-05-22T04:55:23;100062.44;;;15.81;88.83
21863;BME280;11096;51.338;12.524;2023-05-22T04:57:49;100069.97;;;15.94;88.55
21863;BME280;11096;51.338;12.524;2023-05-22T05:00:14;100060.19;;;15.96;88.06
21863;BME280;11096;51.338;12.524;2023-05-22T05:02:41;100061.97;;;16.05;87.87
21863;BME280;11096;51.338;12.524;2023-05-22T05:05:07;100065.25;;;16.17;87.17
21863;BME280;11096;51.338;12.524;2023-05-22T05:07:35;100066.53;;;16.31;86.50
21863;BME280;11096;51.338;12.524;2023-05-22T05:10:01;100064.59;;;16.33;85.68
21863;BME280;11096;51.338;12.524;2023-05-22T05:12:26;100062.25;;;16.40;85.40
21863;BME280;11096;51.338;12.524;2023-05-22T05:14:52;100058.19;;;16.45;84.99
21863;BME280;11096;51.338;12.524;2023-05-22T05:17:17;100062.81;;;16.61;85.07
21863;BME280;11096;51.338;12.524;2023-05-22T05:19:43;100059.69;;;16.75;84.71
21863;BME280;11096;51.338;12.524;2023-05-22T05:22:08;100059.97;;;16.82;83.44
21863;BME280;11096;51.338;12.524;2023-05-22T05:24:33;100066.84;;;16.83;82.87
21863;BME280;11096;51.338;12.524;2023-05-22T05:26:59;100058.84;;;17.03;82.35
21863;BME280;11096;51.338;12.524;2023-05-22T05:29:24;100059.81;;;17.20;81.33
21863;BME280;11096;51.338;12.524;2023-05-22T05:31:50;100049.28;;;17.37;80.36
21863;BME280;11096;51.338;12.524;2023-05-22T05:34:15;100059.88;;;17.46;80.11
21863;BME280;11096;51.338;12.524;2023-05-22T05:36:40;100053.56;;;17.56;79.19
21863;BME280;11096;51.338;12.524;2023-05-22T05:39:06;100060.06;;;17.70;78.40
21863;BME280;11096;51.338;12.524;2023-05-22T05:41:31;100053.97;;;17.88;77.03
21863;BME280;11096;51.338;12.524;2023-05-22T05:43:57;100058.03;;;18.08;76.58
21863;BME280;11096;51.338;12.524;2023-05-22T05:46:24;100056.09;;;18.18;75.60
21863;BME280;11096;51.338;12.524;2023-05-22T05:48:51;100055.16;;;18.28;74.49
21863;BME280;11096;51.338;12.524;2023-05-22T05:51:17;100058.53;;;18.46;74.05
21863;BME280;11096;51.338;12.524;2023-05-22T05:53:42;100056.47;;;18.66;73.14
21863;BME280;11096;51.338;12.524;2023-05-22T05:56:08;100058.09;;;18.75;73.11
21863;BME280;11096;51.338;12.524;2023-05-22T05:58:33;100061.97;;;18.97;72.82
21863;BME280;11096;51.338;12.524;2023-05-22T06:00:59;100057.88;;;19.19;72.03
21863;BME280;11096;51.338;12.524;2023-05-22T06:03:24;100060.69;;;19.34;71.61
21863;BME280;11096;51.338;12.524;2023-05-22T06:05:50;100058.38;;;19.39;71.05
21863;BME280;11096;51.338;12.524;2023-05-22T06:08:16;100055.13;;;19.70;70.69
21863;BME280;11096;51.338;12.524;2023-05-22T06:10:44;100049.47;;;19.89;69.35
21863;BME280;11096;51.338;12.524;2023-05-22T06:13:09;100051.91;;;20.07;69.09
21863;BME280;11096;51.338;12.524;2023-05-22T06:15:35;100063.84;;;20.34;68.29
21863;BME280;11096;51.338;12.524;2023-05-22T06:18:00;100057.41;;;20.37;67.91
21863;BME280;11096;51.338;12.524;2023-05-22T06:20:26;100058.22;;;20.37;67.78
21863;BME280;11096;51.338;12.524;2023-05-22T06:22:52;100054.59;;;20.38;67.14
21863;BME280;11096;51.338;12.524;2023-05-22T06:25:17;100057.88;;;20.41;67.47
21863;BME280;11096;51.338;12.524;2023-05-22T06:27:43;100050.59;;;20.43;66.60
21863;BME280;11096;51.338;12.524;2023-05-22T06:30:08;100054.59;;;20.38;66.50
21863;BME280;11096;51.338;12.524;2023-05-22T06:32:34;100047.97;;;20.43;65.75
21863;BME280;11096;51.338;12.524;2023-05-22T06:35:00;100049.88;;;20.26;66.00
21863;BME280;11096;51.338;12.524;2023-05-22T06:37:25;100052.47;;;20.34;66.07
21863;BME280;11096;51.338;12.524;2023-05-22T06:39:51;100051.91;;;20.47;66.21
21863;BME280;11096;51.338;12.524;2023-05-22T06:42:16;100045.91;;;20.22;65.97
21863;BME280;11096;51.338;12.524;2023-05-22T06:44:42;100047.38;;;20.24;66.06
21863;BME280;11096;51.338;12.524;2023-05-22T06:47:07;100043.75;;;20.25;65.80
21863;BME280;11096;51.338;12.524;2023-05-22T06:49:33;100042.78;;;20.26;65.89
21863;BME280;11096;51.338;12.524;2023-05-22T06:51:58;100041.00;;;20.50;65.68
21863;BME280;11096;51.338;12.524;2023-05-22T06:54:23;100036.03;;;20.86;65.10
21863;BME280;11096;51.338;12.524;2023-05-22T06:56:53;100036.41;;;21.06;64.66
21863;BME280;11096;51.338;12.524;2023-05-22T06:59:19;100037.22;;;21.30;63.79
21863;BME280;11096;51.338;12.524;2023-05-22T07:01:44;100036.63;;;21.42;62.92
21863;BME280;11096;51.338;12.524;2023-05-22T07:04:10;100041.28;;;21.78;62.43
21863;BME280;11096;51.338;12.524;2023-05-22T07:06:37;100043.44;;;22.19;61.46
21863;BME280;11096;51.338;12.524;2023-05-22T07:09:07;100047.59;;;23.38;59.30
21863;BME280;11096;51.338;12.524;2023-05-22T07:11:33;100032.88;;;23.28;57.15
21863;BME280;11096;51.338;12.524;2023-05-22T07:14:00;100035.44;;;22.64;58.55
21863;BME280;11096;51.338;12.524;2023-05-22T07:16:26;100044.63;;;22.83;59.25
21863;BME280;11096;51.338;12.524;2023-05-22T07:18:51;100040.94;;;22.99;58.75
21863;BME280;11096;51.338;12.524;2023-05-22T07:21:17;100042.41;;;22.86;58.64
21863;BME280;11096;51.338;12.524;2023-05-22T07:23:42;100041.19;;;23.25;58.53
21863;BME280;11096;51.338;12.524;2023-05-22T07:26:08;100039.84;;;23.64;58.13
21863;BME280;11096;51.338;12.524;2023-05-22T07:28:34;100036.25;;;24.00;57.44
21863;BME280;11096;51.338;12.524;2023-05-22T07:30:59;100039.25;;;24.32;56.96
21863;BME280;11096;51.338;12.524;2023-05-22T07:33:25;100026.38;;;25.03;53.60
21863;BME280;11096;51.338;12.524;2023-05-22T07:35:50;100039.00;;;24.27;53.92
21863;BME280;11096;51.338;12.524;2023-05-22T07:38:16;100029.22;;;24.82;54.37
21863;BME280;11096;51.338;12.524;2023-05-22T07:40:41;100028.22;;;24.96;53.49
21863;BME280;11096;51.338;12.524;2023-05-22T07:43:07;100024.72;;;25.02;53.09
21863;BME280;11096;51.338;12.524;2023-05-22T07:45:32;100023.56;;;25.32;52.33
21863;BME280;11096;51.338;12.524;2023-05-22T07:47:57;100030.06;;;25.82;52.18
21863;BME280;11096;51.338;12.524;2023-05-22T07:50:24;100027.22;;;25.37;51.24
21863;BME280;11096;51.338;12.524;2023-05-22T07:52:51;100027.59;;;25.07;50.17
21863;BME280;11096;51.338;12.524;2023-05-22T07:55:16;100025.28;;;24.64;51.67
21863;BME280;11096;51.338;12.524;2023-05-22T07:57:42;100025.16;;;25.73;51.32
21863;BME280;11096;51.338;12.524;2023-05-22T08:00:08;100032.81;;;27.04;49.98
21863;BME280;11096;51.338;12.524;2023-05-22T08:02:38;100026.81;;;25.87;49.85
21863;BME280;11096;51.338;12.524;2023-05-22T08:05:04;100027.97;;;26.04;50.24
21863;BME280;11096;51.338;12.524;2023-05-22T08:07:29;100027.00;;;25.65;50.68
21863;BME280;11096;51.338;12.524;2023-05-22T08:09:57;100020.78;;;26.05;49.93
21863;BME280;11096;51.338;12.524;2023-05-22T08:12:22;100025.34;;;25.78;49.75
21863;BME280;11096;51.338;12.524;2023-05-22T08:14:47;100028.66;;;25.60;50.83
21863;BME280;11096;51.338;12.524;2023-05-22T08:17:13;100026.34;;;25.83;50.30
21863;BME280;11096;51.338;12.524;2023-05-22T08:19:38;100029.03;;;25.90;50.08
21863;BME280;11096;51.338;12.524;2023-05-22T08:22:04;100023.03;;;26.08;49.70
21863;BME280;11096;51.338;12.524;2023-05-22T08:24:29;100022.03;;;26.02;50.01
21863;BME280;11096;51.338;12.524;2023-05-22T08:26:56;100014.41;;;26.96;48.58
21863;BME280;11096;51.338;12.524;2023-05-22T08:29:22;100011.25;;;30.20;42.11
21863;BME280;11096;51.338;12.524;2023-05-22T08:31:48;100004.56;;;31.81;38.69
21863;BME280;11096;51.338;12.524;2023-05-22T08:34:14;100004.09;;;32.33;36.56
21863;BME280;11096;51.338;12.524;2023-05-22T08:36:39;100011.88;;;33.11;36.52
21863;BME280;11096;51.338;12.524;2023-05-22T08:39:05;100002.28;;;32.39;36.75
21863;BME280;11096;51.338;12.524;2023-05-22T08:41:31;100007.53;;;32.78;36.78
21863;BME280;11096;51.338;12.524;2023-05-22T08:43:57;99997.66;;;35.69;32.62
21863;BME280;11096;51.338;12.524;2023-05-22T08:46:23;99999.63;;;36.14;31.82
21863;BME280;11096;51.338;12.524;2023-05-22T08:48:56;99999.00;;;37.59;30.24
21863;BME280;11096;51.338;12.524;2023-05-22T08:51:26;99979.59;;;35.39;31.11
21863;BME280;11096;51.338;12.524;2023-05-22T08:53:55;99988.56;;;32.94;33.47
21863;BME280;11096;51.338;12.524;2023-05-22T08:56:20;99979.53;;;33.53;33.88
21863;BME280;11096;51.338;12.524;2023-05-22T08:58:46;99987.97;;;33.25;33.91
21863;BME280;11096;51.338;12.524;2023-05-22T09:01:12;99975.38;;;33.83;33.35
21863;BME280;11096;51.338;12.524;2023-05-22T09:03:38;99971.09;;;35.82;31.53
21863;BME280;11096;51.338;12.524;2023-05-22T09:06:04;99971.69;;;36.68;30.20
21863;BME280;11096;51.338;12.524;2023-05-22T09:08:34;99978.72;;;35.69;29.71
21863;BME280;11096;51.338;12.524;2023-05-22T09:11:01;99969.84;;;38.13;27.87
21863;BME280;11096;51.338;12.524;2023-05-22T09:13:28;99972.91;;;37.63;27.01
21863;BME280;11096;51.338;12.524;2023-05-22T09:16:08;99967.19;;;39.11;26.37
21863;BME280;11096;51.338;12.524;2023-05-22T09:18:35;99963.25;;;38.71;25.95
21863;BME280;11096;51.338;12.524;2023-05-22T09:21:01;99964.03;;;38.38;25.38
21863;BME280;11096;51.338;12.524;2023-05-22T09:23:28;99958.56;;;35.26;28.19
21863;BME280;11096;51.338;12.524;2023-05-22T09:25:58;99952.59;;;35.29;28.12
21863;BME280;11096;51.338;12.524;2023-05-22T09:28:23;99950.22;;;34.87;27.42
21863;BME280;11096;51.338;12.524;2023-05-22T09:30:50;99941.53;;;34.18;28.50
21863;BME280;11096;51.338;12.524;2023-05-22T09:33:19;99943.75;;;34.72;28.03
21863;BME280;11096;51.338;12.524;2023-05-22T09:35:48;99955.81;;;36.06;27.54
21863;BME280;11096;51.338;12.524;2023-05-22T09:38:15;99943.56;;;36.64;25.70
21863;BME280;11096;51.338;12.524;2023-05-22T09:40:41;99944.63;;;36.68;25.28
21863;BME280;11096;51.338;12.524;2023-05-22T09:43:08;99935.06;;;35.26;26.68
21863;BME280;11096;51.338;12.524;2023-05-22T09:45:34;99938.81;;;33.45;28.52
21863;BME280;11096;51.338;12.524;2023-05-22T09:48:00;99935.09;;;34.19;28.41
21863;BME280;11096;51.338;12.524;2023-05-22T09:50:25;99935.75;;;35.63;27.28
21863;BME280;11096;51.338;12.524;2023-05-22T09:52:52;99933.41;;;36.40;27.00
21863;BME280;11096;51.338;12.524;2023-05-22T09:55:19;99930.59;;;35.66;26.89
21863;BME280;11096;51.338;12.524;2023-05-22T09:57:45;99937.34;;;36.92;27.25
21863;BME280;11096;51.338;12.524;2023-05-22T10:00:14;99933.47;;;35.05;27.06
21863;BME280;11096;51.338;12.524;2023-05-22T10:02:48;99937.75;;;37.10;26.92
21863;BME280;11096;51.338;12.524;2023-05-22T10:05:14;99941.53;;;36.45;26.92
21863;BME280;11096;51.338;12.524;2023-05-22T10:07:48;99931.50;;;36.06;25.99
21863;BME280;11096;51.338;12.524;2023-05-22T10:10:16;99929.13;;;35.14;27.03
21863;BME280;11096;51.338;12.524;2023-05-22T10:13:02;99930.03;;;32.20;29.80
21863;BME280;11096;51.338;12.524;2023-05-22T10:15:28;99924.81;;;30.87;32.02
21863;BME280;11096;51.338;12.524;2023-05-22T10:17:55;99921.19;;;29.90;32.82
21863;BME280;11096;51.338;12.524;2023-05-22T10:20:21;99928.00;;;29.57;34.40
21863;BME280;11096;51.338;12.524;2023-05-22T10:22:47;99916.97;;;28.95;35.02
21863;BME280;11096;51.338;12.524;2023-05-22T10:25:18;99925.34;;;28.44;35.56
21863;BME280;11096;51.338;12.524;2023-05-22T10:27:46;99919.69;;;28.22;36.18
21863;BME280;11096;51.338;12.524;2023-05-22T10:30:23;99915.69;;;28.43;36.33
21863;BME280;11096;51.338;12.524;2023-05-22T10:32:59;99917.03;;;28.53;35.97
21863;BME280;11096;51.338;12.524;2023-05-22T10:38:20;99908.25;;;29.46;34.63
21863;BME280;11096;51.338;12.524;2023-05-22T10:40:51;99907.03;;;31.80;31.92
21863;BME280;11096;51.338;12.524;2023-05-22T10:43:16;99905.69;;;34.28;29.00
21863;BME280;11096;51.338;12.524;2023-05-22T10:45:43;99908.25;;;32.81;30.85
21863;BME280;11096;51.338;12.524;2023-05-22T10:48:11;99902.81;;;31.67;31.59
21863;BME280;11096;51.338;12.524;2023-05-22T10:50:37;99906.00;;;31.42;31.82
21863;BME280;11096;51.338;12.524;2023-05-22T10:55:57;99892.13;;;31.29;33.09
21863;BME280;11096;51.338;12.524;2023-05-22T11:01:13;99898.47;;;31.61;32.20
21863;BME280;11096;51.338;12.524;2023-05-22T11:03:58;99890.59;;;31.55;31.83
21863;BME280;11096;51.338;12.524;2023-05-22T11:06:39;99895.59;;;31.46;31.06
21863;BME280;11096;51.338;12.524;2023-05-22T11:11:44;99883.13;;;31.18;31.75
21863;BME280;11096;51.338;12.524;2023-05-22T11:14:11;99884.66;;;30.92;31.47
21863;BME280;11096;51.338;12.524;2023-05-22T11:16:38;99899.59;;;31.43;31.75
21863;BME280;11096;51.338;12.524;2023-05-22T11:19:08;99889.44;;;32.22;29.63
21863;BME280;11096;51.338;12.524;2023-05-22T11:21:41;99885.88;;;33.81;28.18
21863;BME280;11096;51.338;12.524;2023-05-22T11:24:07;99886.94;;;33.65;28.52
21863;BME280;11096;51.338;12.524;2023-05-22T11:26:33;99889.25;;;32.28;27.98
21863;BME280;11096;51.338;12.524;2023-05-22T11:28:59;99884.50;;;32.41;29.58
21863;BME280;11096;51.338;12.524;2023-05-22T11:31:25;99878.56;;;33.03;27.98
21863;BME280;11096;51.338;12.524;2023-05-22T11:33:52;99875.34;;;32.69;28.35
21863;BME280;11096;51.338;12.524;2023-05-22T11:36:18;99871.56;;;33.07;28.02
21863;BME280;11096;51.338;12.524;2023-05-22T11:38:43;99871.91;;;33.94;26.40
21863;BME280;11096;51.338;12.524;2023-05-22T11:41:09;99875.88;;;33.66;26.53
21863;BME280;11096;51.338;12.524;2023-05-22T11:43:36;99867.38;;;34.31;26.05
21863;BME280;11096;51.338;12.524;2023-05-22T11:46:08;99861.47;;;34.59;25.07
21863;BME280;11096;51.338;12.524;2023-05-22T11:48:38;99857.38;;;34.21;25.88
21863;BME280;11096;51.338;12.524;2023-05-22T11:51:04;99857.75;;;33.51;26.89
21863;BME280;11096;51.338;12.524;2023-05-22T11:53:33;99855.97;;;33.72;27.22
21863;BME280;11096;51.338;12.524;2023-05-22T11:56:03;99854.97;;;33.21;27.90
21863;BME280;11096;51.338;12.524;2023-05-22T11:58:29;99853.41;;;32.92;27.90
21863;BME280;11096;51.338;12.524;2023-05-22T12:00:59;99848.53;;;32.84;27.26
21863;BME280;11096;51.338;12.524;2023-05-22T12:03:25;99851.16;;;33.90;27.02
21863;BME280;11096;51.338;12.524;2023-05-22T12:05:51;99850.22;;;33.48;27.25
21863;BME280;11096;51.338;12.524;2023-05-22T12:08:16;99843.84;;;33.75;27.09
21863;BME280;11096;51.338;12.524;2023-05-22T12:10:48;99845.34;;;33.45;27.73
21863;BME280;11096;51.338;12.524;2023-05-22T12:13:14;99840.91;;;33.08;27.34
21863;BME280;11096;51.338;12.524;2023-05-22T12:15:39;99842.94;;;32.21;28.05
21863;BME280;11096;51.338;12.524;2023-05-22T12:18:08;99843.34;;;34.80;26.08
21863;BME280;11096;51.338;12.524;2023-05-22T12:20:34;99839.59;;;34.20;26.71
21863;BME280;11096;51.338;12.524;2023-05-22T12:22:59;99844.25;;;32.19;27.81
21863;BME280;11096;51.338;12.524;2023-05-22T12:25:32;99837.41;;;33.13;28.16
21863;BME280;11096;51.338;12.524;2023-05-22T12:28:00;99836.09;;;34.14;27.04
21863;BME280;11096;51.338;12.524;2023-05-22T12:30:25;99838.44;;;34.98;26.35
21863;BME280;11096;51.338;12.524;2023-05-22T12:32:50;99835.75;;;34.82;25.48
21863;BME280;11096;51.338;12.524;2023-05-22T12:35:16;99819.09;;;34.45;26.05
21863;BME280;11096;51.338;12.524;2023-05-22T12:37:49;99818.97;;;36.05;25.59
21863;BME280;11096;51.338;12.524;2023-05-22T12:40:15;99829.81;;;35.56;24.92
21863;BME280;11096;51.338;12.524;2023-05-22T12:42:41;99816.13;;;34.05;25.82
21863;BME280;11096;51.338;12.524;2023-05-22T12:45:07;99816.13;;;34.15;26.61
21863;BME280;11096;51.338;12.524;2023-05-22T12:47:32;99816.38;;;33.98;26.83
21863;BME280;11096;51.338;12.524;2023-05-22T12:49:58;99809.06;;;33.84;25.87
21863;BME280;11096;51.338;12.524;2023-05-22T12:52:23;99815.25;;;33.59;26.33
21863;BME280;11096;51.338;12.524;2023-05-22T12:54:49;99813.19;;;34.12;26.26
21863;BME280;11096;51.338;12.524;2023-05-22T12:57:14;99808.03;;;34.05;25.92
21863;BME280;11096;51.338;12.524;2023-05-22T12:59:41;99801.03;;;35.36;24.46